createdAt,value
2017-03-29T00:00:08.885Z,0
2017-03-29T00:00:41.135Z,0
2017-03-29T00:01:13.409Z,0
2017-03-29T00:01:45.688Z,0
2017-03-29T00:02:17.990Z,0
2017-03-29T00:04:09.889Z,0
2017-03-29T00:04:42.224Z,0
2017-03-29T00:05:14.519Z,0
2017-03-29T00:05:46.823Z,0
2017-03-29T00:06:19.129Z,0
2017-03-29T00:06:51.464Z,0
2017-03-29T00:07:24.559Z,0
2017-03-29T00:07:57.751Z,0
2017-03-29T00:08:30.686Z,0
2017-03-29T00:09:03.363Z,0
2017-03-29T00:09:36.536Z,0
2017-03-29T00:10:08.896Z,0
2017-03-29T00:10:41.213Z,0
2017-03-29T00:11:13.548Z,0
2017-03-29T00:11:45.876Z,0
2017-03-29T00:12:18.197Z,0
2017-03-29T00:14:09.931Z,0
2017-03-29T00:14:42.250Z,0
2017-03-29T00:15:14.560Z,0
2017-03-29T00:15:46.905Z,0
2017-03-29T00:16:19.219Z,0
2017-03-29T00:16:52.474Z,0
2017-03-29T00:17:24.808Z,0
2017-03-29T00:17:57.131Z,0
2017-03-29T00:18:29.468Z,0
2017-03-29T00:19:01.801Z,0
2017-03-29T00:19:34.122Z,0
2017-03-29T00:20:06.440Z,0
2017-03-29T00:20:38.742Z,0
2017-03-29T00:22:30.338Z,0
2017-03-29T00:23:05.457Z,0
2017-03-29T00:23:41.209Z,0
2017-03-29T00:24:13.527Z,0
2017-03-29T00:24:45.840Z,0
2017-03-29T00:25:18.164Z,0
2017-03-29T00:25:50.497Z,0
2017-03-29T00:26:22.822Z,0
2017-03-29T00:26:55.133Z,0
2017-03-29T00:27:29.017Z,0
2017-03-29T00:28:01.342Z,0
2017-03-29T00:28:33.672Z,0
2017-03-29T00:29:05.997Z,0
2017-03-29T00:29:38.311Z,0
2017-03-29T00:30:10.615Z,0
2017-03-29T00:30:44.891Z,0
2017-03-29T00:32:36.802Z,0
2017-03-29T00:33:09.111Z,0
2017-03-29T00:33:41.433Z,0
2017-03-29T00:34:13.755Z,0
2017-03-29T00:34:46.081Z,0
2017-03-29T00:35:18.417Z,0
2017-03-29T00:35:50.750Z,0
2017-03-29T00:36:23.082Z,0
2017-03-29T00:38:15.358Z,0
2017-03-29T00:38:47.686Z,0
2017-03-29T00:39:20.007Z,0
2017-03-29T00:39:52.336Z,0
2017-03-29T00:40:24.659Z,0
2017-03-29T00:40:57.028Z,0
2017-03-29T00:41:29.345Z,0
2017-03-29T00:42:01.654Z,0
2017-03-29T00:42:33.967Z,0
2017-03-29T00:43:06.280Z,0
2017-03-29T00:43:38.597Z,0
2017-03-29T00:44:10.916Z,0
2017-03-29T00:44:43.240Z,0
2017-03-29T00:45:15.557Z,0
2017-03-29T00:45:47.886Z,0
2017-03-29T00:46:20.198Z,0
2017-03-29T00:46:52.542Z,0
2017-03-29T00:47:24.848Z,0
2017-03-29T00:47:57.183Z,0
2017-03-29T00:48:29.492Z,0
2017-03-29T00:49:01.817Z,0
2017-03-29T00:49:34.133Z,0
2017-03-29T00:50:06.445Z,0
2017-03-29T00:50:38.761Z,0
2017-03-29T00:51:11.080Z,0
2017-03-29T00:51:43.402Z,0
2017-03-29T00:52:15.664Z,0
2017-03-29T00:52:47.914Z,0
2017-03-29T00:53:20.188Z,0
2017-03-29T00:53:52.431Z,0
2017-03-29T00:54:24.774Z,0
2017-03-29T00:54:57.866Z,0
2017-03-29T00:55:30.110Z,0
2017-03-29T00:56:02.384Z,0
2017-03-29T00:56:34.634Z,0
2017-03-29T00:57:06.888Z,0
2017-03-29T00:57:39.122Z,0
2017-03-29T00:58:11.353Z,0
2017-03-29T00:58:43.606Z,0
2017-03-29T00:59:15.869Z,0
2017-03-29T00:59:48.717Z,0
2017-03-29T01:00:20.974Z,0
2017-03-29T01:00:53.234Z,0
2017-03-29T01:01:25.489Z,0
2017-03-29T01:01:57.771Z,0
2017-03-29T01:02:30.031Z,0
2017-03-29T01:03:02.293Z,0
2017-03-29T01:03:34.548Z,0
2017-03-29T01:04:06.826Z,0
2017-03-29T01:04:39.090Z,0
2017-03-29T01:05:11.346Z,0
2017-03-29T01:05:43.594Z,0
2017-03-29T01:06:15.878Z,0
2017-03-29T01:06:48.133Z,0
2017-03-29T01:07:20.412Z,0
2017-03-29T01:07:52.673Z,0
2017-03-29T01:08:24.929Z,0
2017-03-29T01:08:57.157Z,0
2017-03-29T01:09:29.511Z,0
2017-03-29T01:10:01.771Z,0
2017-03-29T01:10:34.018Z,0
2017-03-29T01:11:07.167Z,0
2017-03-29T01:11:39.416Z,0
2017-03-29T01:12:11.663Z,0
2017-03-29T01:12:43.922Z,0
2017-03-29T01:13:16.172Z,0
2017-03-29T01:13:48.428Z,0
2017-03-29T01:14:20.668Z,0
2017-03-29T01:14:52.941Z,0
2017-03-29T01:15:25.204Z,0
2017-03-29T01:15:57.474Z,0
2017-03-29T01:16:29.759Z,0
2017-03-29T01:17:02.007Z,0
2017-03-29T01:17:34.280Z,0
2017-03-29T01:18:06.543Z,0
2017-03-29T01:18:38.805Z,0
2017-03-29T01:19:12.323Z,0
2017-03-29T01:19:44.577Z,0
2017-03-29T01:20:16.813Z,0
2017-03-29T01:20:49.073Z,0
2017-03-29T01:21:21.811Z,0
2017-03-29T01:21:54.114Z,0
2017-03-29T01:22:26.434Z,0
2017-03-29T01:22:58.734Z,0
2017-03-29T01:23:31.053Z,0
2017-03-29T01:24:03.381Z,0
2017-03-29T01:24:35.702Z,0
2017-03-29T01:25:08.013Z,0
2017-03-29T01:25:40.320Z,0
2017-03-29T01:26:12.645Z,0
2017-03-29T01:26:44.973Z,0
2017-03-29T01:27:17.299Z,0
2017-03-29T01:27:49.640Z,0
2017-03-29T01:28:21.966Z,0
2017-03-29T01:28:54.298Z,0
2017-03-29T01:29:26.606Z,0
2017-03-29T01:29:58.924Z,0
2017-03-29T01:30:31.249Z,0
2017-03-29T01:31:03.575Z,0
2017-03-29T01:31:35.903Z,0
2017-03-29T01:32:08.186Z,0
2017-03-29T01:32:40.456Z,0
2017-03-29T01:33:12.823Z,0
2017-03-29T01:33:45.079Z,0
2017-03-29T01:34:17.337Z,0
2017-03-29T01:34:49.588Z,0
2017-03-29T01:35:21.837Z,0
2017-03-29T01:35:54.071Z,0
2017-03-29T01:36:27.255Z,0
2017-03-29T01:36:59.513Z,0
2017-03-29T01:37:31.799Z,0
2017-03-29T01:38:04.074Z,0
2017-03-29T01:38:36.305Z,0
2017-03-29T01:39:08.564Z,0
2017-03-29T01:39:40.815Z,0
2017-03-29T01:40:13.097Z,0
2017-03-29T01:40:45.357Z,0
2017-03-29T01:41:17.621Z,0
2017-03-29T01:41:49.891Z,0
2017-03-29T01:42:22.129Z,0
2017-03-29T01:42:54.374Z,0
2017-03-29T01:43:26.652Z,0
2017-03-29T01:43:58.895Z,0
2017-03-29T01:44:31.826Z,0
2017-03-29T01:45:04.128Z,0
2017-03-29T01:45:37.223Z,0
2017-03-29T01:46:09.480Z,0
2017-03-29T01:46:41.819Z,0
2017-03-29T01:47:14.077Z,0
2017-03-29T01:47:46.331Z,0
2017-03-29T01:48:18.581Z,0
2017-03-29T01:48:50.846Z,0
2017-03-29T01:49:23.104Z,0
2017-03-29T01:49:55.398Z,0
2017-03-29T01:50:27.669Z,0
2017-03-29T01:50:59.912Z,0
2017-03-29T01:51:32.162Z,0
2017-03-29T01:52:04.466Z,0
2017-03-29T01:52:36.783Z,0
2017-03-29T01:53:09.100Z,0
2017-03-29T01:53:41.403Z,0
2017-03-29T01:54:13.725Z,0
2017-03-29T01:54:46.040Z,0
2017-03-29T01:55:18.372Z,0
2017-03-29T01:55:50.695Z,0
2017-03-29T01:56:23.040Z,0
2017-03-29T01:56:55.355Z,0
2017-03-29T01:57:27.687Z,0
2017-03-29T01:58:00.020Z,0
2017-03-29T01:58:32.384Z,0
2017-03-29T01:59:04.699Z,0
2017-03-29T01:59:37.015Z,0
2017-03-29T02:00:09.337Z,0
2017-03-29T02:00:41.653Z,0
2017-03-29T02:01:13.973Z,0
2017-03-29T02:01:46.300Z,0
2017-03-29T02:02:18.587Z,0
2017-03-29T02:02:50.863Z,0
2017-03-29T02:03:23.126Z,0
2017-03-29T02:03:55.889Z,0
2017-03-29T02:04:28.142Z,0
2017-03-29T02:05:00.570Z,0
2017-03-29T02:05:33.370Z,0
2017-03-29T02:06:05.639Z,0
2017-03-29T02:06:37.897Z,0
2017-03-29T02:07:10.136Z,0
2017-03-29T02:07:42.404Z,0
2017-03-29T02:08:14.783Z,0
2017-03-29T02:08:47.028Z,0
2017-03-29T02:09:19.272Z,0
2017-03-29T02:09:51.516Z,0
2017-03-29T02:10:23.867Z,0
2017-03-29T02:10:56.121Z,0
2017-03-29T02:11:28.371Z,0
2017-03-29T02:12:00.646Z,0
2017-03-29T02:12:32.874Z,0
2017-03-29T02:13:05.147Z,0
2017-03-29T02:13:38.291Z,0
2017-03-29T02:14:10.550Z,0
2017-03-29T02:14:42.977Z,0
2017-03-29T02:15:15.265Z,0
2017-03-29T02:15:47.539Z,0
2017-03-29T02:16:19.799Z,0
2017-03-29T02:16:52.051Z,0
2017-03-29T02:17:24.315Z,0
2017-03-29T02:17:56.569Z,0
2017-03-29T02:18:28.831Z,0
2017-03-29T02:19:01.087Z,0
2017-03-29T02:19:33.328Z,0
2017-03-29T02:20:05.594Z,0
2017-03-29T02:20:37.847Z,0
2017-03-29T02:21:10.097Z,0
2017-03-29T02:21:42.352Z,0
2017-03-29T02:22:14.593Z,0
2017-03-29T02:22:46.860Z,0
2017-03-29T02:23:19.101Z,0
2017-03-29T02:23:51.340Z,0
2017-03-29T02:24:23.613Z,0
2017-03-29T02:24:55.872Z,0
2017-03-29T02:25:28.111Z,0
2017-03-29T02:26:00.365Z,0
2017-03-29T02:26:32.614Z,0
2017-03-29T02:27:04.890Z,0
2017-03-29T02:27:37.196Z,0
2017-03-29T02:28:09.453Z,0
2017-03-29T02:28:41.696Z,0
2017-03-29T02:29:13.943Z,0
2017-03-29T02:29:46.189Z,0
2017-03-29T02:30:18.446Z,0
2017-03-29T02:30:50.733Z,0
2017-03-29T02:31:22.986Z,0
2017-03-29T02:31:55.245Z,0
2017-03-29T02:32:27.502Z,0
2017-03-29T02:32:59.756Z,0
2017-03-29T02:33:32.009Z,0
2017-03-29T02:34:05.199Z,0
2017-03-29T02:34:37.431Z,0
2017-03-29T02:35:09.771Z,0
2017-03-29T02:35:42.032Z,0
2017-03-29T02:36:14.297Z,0
2017-03-29T02:36:46.555Z,0
2017-03-29T02:37:18.811Z,0
2017-03-29T02:37:51.078Z,0
2017-03-29T02:38:23.332Z,0
2017-03-29T02:38:55.585Z,0
2017-03-29T02:39:27.834Z,0
2017-03-29T02:40:00.089Z,0
2017-03-29T02:40:32.333Z,0
2017-03-29T02:41:05.181Z,0
2017-03-29T02:41:38.354Z,0
2017-03-29T02:42:10.598Z,0
2017-03-29T02:42:42.852Z,0
2017-03-29T02:43:15.128Z,0
2017-03-29T02:43:47.404Z,0
2017-03-29T02:44:19.665Z,0
2017-03-29T02:44:51.912Z,0
2017-03-29T02:45:24.188Z,0
2017-03-29T02:45:56.451Z,0
2017-03-29T02:46:28.718Z,0
2017-03-29T02:47:00.982Z,0
2017-03-29T02:47:33.238Z,0
2017-03-29T02:48:05.494Z,0
2017-03-29T02:48:37.754Z,0
2017-03-29T02:49:10.734Z,0
2017-03-29T02:49:42.988Z,0
2017-03-29T02:50:15.263Z,0
2017-03-29T02:50:47.531Z,0
2017-03-29T02:51:19.824Z,0
2017-03-29T02:51:52.156Z,0
2017-03-29T02:52:24.481Z,0
2017-03-29T02:52:56.791Z,0
2017-03-29T02:53:29.103Z,0
2017-03-29T02:54:01.431Z,0
2017-03-29T02:54:33.749Z,0
2017-03-29T02:55:06.059Z,0
2017-03-29T02:55:38.387Z,0
2017-03-29T02:56:10.729Z,0
2017-03-29T02:56:43.050Z,0
2017-03-29T02:57:15.364Z,0
2017-03-29T02:57:47.673Z,0
2017-03-29T02:58:19.992Z,0
2017-03-29T02:58:52.354Z,0
2017-03-29T02:59:24.685Z,0
2017-03-29T02:59:57.005Z,0
2017-03-29T03:00:29.327Z,0
2017-03-29T03:01:01.650Z,0
2017-03-29T03:01:33.994Z,0
2017-03-29T03:02:06.273Z,0
2017-03-29T03:02:38.545Z,0
2017-03-29T03:03:10.798Z,0
2017-03-29T03:03:43.065Z,0
2017-03-29T03:04:15.323Z,0
2017-03-29T03:04:47.667Z,0
2017-03-29T03:05:19.914Z,0
2017-03-29T03:05:52.172Z,0
2017-03-29T03:06:24.438Z,0
2017-03-29T03:06:56.693Z,0
2017-03-29T03:07:28.940Z,0
2017-03-29T03:08:01.198Z,0
2017-03-29T03:08:33.473Z,0
2017-03-29T03:09:05.726Z,0
2017-03-29T03:09:37.992Z,0
2017-03-29T03:10:10.246Z,0
2017-03-29T03:10:42.508Z,0
2017-03-29T03:11:14.761Z,0
2017-03-29T03:11:47.761Z,0
2017-03-29T03:12:20.029Z,0
2017-03-29T03:12:52.294Z,0
2017-03-29T03:13:25.396Z,0
2017-03-29T03:13:58.313Z,0
2017-03-29T03:14:30.557Z,0
2017-03-29T03:15:02.833Z,0
2017-03-29T03:15:35.100Z,0
2017-03-29T03:16:07.365Z,0
2017-03-29T03:16:39.676Z,0
2017-03-29T03:17:11.929Z,0
2017-03-29T03:17:44.205Z,0
2017-03-29T03:18:16.490Z,0
2017-03-29T03:18:49.862Z,0
2017-03-29T03:19:22.123Z,0
2017-03-29T03:19:54.389Z,0
2017-03-29T03:20:26.689Z,0
2017-03-29T03:20:59.922Z,0
2017-03-29T03:21:32.190Z,0
2017-03-29T03:22:04.487Z,0
2017-03-29T03:22:36.806Z,0
2017-03-29T03:23:09.110Z,0
2017-03-29T03:23:41.421Z,0
2017-03-29T03:24:13.726Z,0
2017-03-29T03:24:46.051Z,0
2017-03-29T03:25:18.364Z,0
2017-03-29T03:25:50.683Z,0
2017-03-29T03:26:23.008Z,0
2017-03-29T03:26:55.333Z,0
2017-03-29T03:27:27.647Z,0
2017-03-29T03:27:59.974Z,0
2017-03-29T03:28:32.298Z,0
2017-03-29T03:29:04.625Z,0
2017-03-29T03:29:36.935Z,0
2017-03-29T03:30:09.280Z,0
2017-03-29T03:30:41.596Z,0
2017-03-29T03:31:13.893Z,0
2017-03-29T03:31:46.203Z,0
2017-03-29T03:32:18.513Z,0
2017-03-29T03:32:50.830Z,0
2017-03-29T03:33:23.131Z,0
2017-03-29T03:33:55.458Z,0
2017-03-29T03:34:27.786Z,0
2017-03-29T03:35:00.116Z,0
2017-03-29T03:35:32.446Z,0
2017-03-29T03:36:04.759Z,0
2017-03-29T03:36:37.090Z,0
2017-03-29T03:37:09.413Z,0
2017-03-29T03:37:41.742Z,0
2017-03-29T03:38:14.061Z,0
2017-03-29T03:38:46.381Z,0
2017-03-29T03:39:18.711Z,0
2017-03-29T03:39:51.023Z,0
2017-03-29T03:40:23.335Z,0
2017-03-29T03:40:55.671Z,0
2017-03-29T03:41:27.996Z,0
2017-03-29T03:42:00.276Z,0
2017-03-29T03:42:32.533Z,0
2017-03-29T03:43:04.784Z,0
2017-03-29T03:43:37.036Z,0
2017-03-29T03:44:09.279Z,0
2017-03-29T03:44:41.525Z,0
2017-03-29T03:45:13.792Z,0
2017-03-29T03:45:46.047Z,0
2017-03-29T03:46:18.323Z,0
2017-03-29T03:46:50.569Z,0
2017-03-29T03:47:22.819Z,0
2017-03-29T03:47:55.136Z,0
2017-03-29T03:48:27.372Z,0
2017-03-29T03:48:59.625Z,0
2017-03-29T03:49:31.886Z,0
2017-03-29T03:50:04.142Z,0
2017-03-29T03:50:36.406Z,0
2017-03-29T03:51:08.656Z,0
2017-03-29T03:51:40.903Z,0
2017-03-29T03:52:13.223Z,0
2017-03-29T03:52:45.544Z,0
2017-03-29T03:53:17.862Z,0
2017-03-29T03:53:50.183Z,0
2017-03-29T03:54:22.512Z,0
2017-03-29T03:54:54.820Z,0
2017-03-29T03:55:27.152Z,0
2017-03-29T03:55:59.460Z,0
2017-03-29T03:56:31.778Z,0
2017-03-29T03:57:04.099Z,0
2017-03-29T03:57:36.418Z,0
2017-03-29T03:58:08.765Z,0
2017-03-29T03:58:41.092Z,0
2017-03-29T03:59:13.408Z,0
2017-03-29T03:59:45.735Z,0
2017-03-29T04:00:18.058Z,0
2017-03-29T04:00:50.370Z,0
2017-03-29T04:01:22.675Z,0
2017-03-29T04:01:55.411Z,0
2017-03-29T04:02:27.683Z,0
2017-03-29T04:02:59.926Z,0
2017-03-29T04:03:32.179Z,0
2017-03-29T04:04:04.438Z,0
2017-03-29T04:04:36.696Z,0
2017-03-29T04:05:09.721Z,0
2017-03-29T04:05:41.959Z,0
2017-03-29T04:06:14.255Z,0
2017-03-29T04:06:46.501Z,0
2017-03-29T04:07:18.856Z,0
2017-03-29T04:07:51.111Z,0
2017-03-29T04:08:23.374Z,0
2017-03-29T04:08:55.606Z,0
2017-03-29T04:09:27.900Z,0
2017-03-29T04:10:00.167Z,0
2017-03-29T04:10:32.416Z,0
2017-03-29T04:11:04.679Z,0
2017-03-29T04:11:36.936Z,0
2017-03-29T04:12:09.209Z,0
2017-03-29T04:12:41.592Z,0
2017-03-29T04:13:13.842Z,0
2017-03-29T04:13:46.081Z,0
2017-03-29T04:14:18.331Z,0
2017-03-29T04:14:50.630Z,0
2017-03-29T04:15:22.896Z,0
2017-03-29T04:15:55.916Z,0
2017-03-29T04:16:28.177Z,0
2017-03-29T04:17:00.474Z,0
2017-03-29T04:17:32.750Z,0
2017-03-29T04:18:05.017Z,0
2017-03-29T04:18:37.282Z,0
2017-03-29T04:19:09.571Z,0
2017-03-29T04:19:42.012Z,0
2017-03-29T04:20:14.254Z,0
2017-03-29T04:20:46.528Z,0
2017-03-29T04:21:18.793Z,0
2017-03-29T04:21:51.092Z,0
2017-03-29T04:22:23.419Z,0
2017-03-29T04:22:55.732Z,0
2017-03-29T04:23:28.050Z,0
2017-03-29T04:24:00.386Z,0
2017-03-29T04:24:32.715Z,0
2017-03-29T04:25:05.027Z,0
2017-03-29T04:25:37.355Z,0
2017-03-29T04:26:09.668Z,0
2017-03-29T04:26:41.989Z,0
2017-03-29T04:27:14.325Z,0
2017-03-29T04:27:46.651Z,0
2017-03-29T04:28:18.961Z,0
2017-03-29T04:28:51.281Z,0
2017-03-29T04:29:23.620Z,0
2017-03-29T04:29:55.926Z,0
2017-03-29T04:30:28.247Z,0
2017-03-29T04:31:00.563Z,0
2017-03-29T04:31:32.881Z,0
2017-03-29T04:32:05.162Z,0
2017-03-29T04:32:37.418Z,0
2017-03-29T04:33:09.673Z,0
2017-03-29T04:33:41.918Z,0
2017-03-29T04:34:15.422Z,0
2017-03-29T04:34:47.713Z,0
2017-03-29T04:35:19.972Z,0
2017-03-29T04:35:52.241Z,0
2017-03-29T04:36:24.475Z,0
2017-03-29T04:36:56.730Z,0
2017-03-29T04:37:29.004Z,0
2017-03-29T04:38:01.261Z,0
2017-03-29T04:38:33.509Z,0
2017-03-29T04:39:05.879Z,0
2017-03-29T04:39:38.126Z,0
2017-03-29T04:40:10.393Z,0
2017-03-29T04:40:42.629Z,0
2017-03-29T04:41:14.866Z,0
2017-03-29T04:41:47.116Z,0
2017-03-29T04:42:19.422Z,0
2017-03-29T04:42:51.731Z,0
2017-03-29T04:43:24.047Z,0
2017-03-29T04:43:56.366Z,0
2017-03-29T04:44:28.671Z,0
2017-03-29T04:45:00.983Z,0
2017-03-29T04:45:33.305Z,0
2017-03-29T04:46:05.622Z,0
2017-03-29T04:46:37.932Z,0
2017-03-29T04:47:10.265Z,0
2017-03-29T04:47:42.571Z,0
2017-03-29T04:48:14.901Z,0
2017-03-29T04:48:47.215Z,0
2017-03-29T04:49:19.551Z,0
2017-03-29T04:49:51.868Z,0
2017-03-29T04:50:24.172Z,0
2017-03-29T04:50:56.486Z,0
2017-03-29T04:51:28.796Z,0
2017-03-29T04:52:01.132Z,0
2017-03-29T04:52:33.440Z,0
2017-03-29T04:53:05.747Z,0
2017-03-29T04:53:38.063Z,0
2017-03-29T04:54:10.373Z,0
2017-03-29T04:54:42.697Z,0
2017-03-29T04:55:15.006Z,0
2017-03-29T04:55:47.333Z,0
2017-03-29T04:56:19.657Z,0
2017-03-29T04:56:51.978Z,0
2017-03-29T04:57:24.298Z,0
2017-03-29T04:57:56.621Z,0
2017-03-29T04:58:28.939Z,0
2017-03-29T04:59:01.241Z,0
2017-03-29T04:59:33.566Z,0
2017-03-29T05:00:05.880Z,0
2017-03-29T05:00:38.193Z,0
2017-03-29T05:01:10.500Z,0
2017-03-29T05:01:42.813Z,0
2017-03-29T05:02:15.132Z,0
2017-03-29T05:02:47.448Z,0
2017-03-29T05:03:19.753Z,0
2017-03-29T05:03:52.051Z,0
2017-03-29T05:04:24.359Z,0
2017-03-29T05:04:56.688Z,0
2017-03-29T05:05:29.000Z,0
2017-03-29T05:06:01.317Z,0
2017-03-29T05:06:33.636Z,0
2017-03-29T05:07:05.967Z,0
2017-03-29T05:07:38.276Z,0
2017-03-29T05:08:10.575Z,0
2017-03-29T05:08:42.881Z,0
2017-03-29T05:09:15.207Z,0
2017-03-29T05:09:47.540Z,0
2017-03-29T05:10:19.864Z,0
2017-03-29T05:10:52.176Z,0
2017-03-29T05:11:24.526Z,0
2017-03-29T05:11:56.846Z,0
2017-03-29T05:12:29.172Z,0
2017-03-29T05:13:01.490Z,0
2017-03-29T05:13:33.809Z,0
2017-03-29T05:14:06.127Z,0
2017-03-29T05:14:38.446Z,0
2017-03-29T05:15:10.748Z,0
2017-03-29T05:15:43.063Z,0
2017-03-29T05:16:15.383Z,0
2017-03-29T05:16:47.747Z,0
2017-03-29T05:17:20.072Z,0
2017-03-29T05:17:52.401Z,0
2017-03-29T05:18:24.707Z,0
2017-03-29T05:18:57.019Z,0
2017-03-29T05:19:29.336Z,0
2017-03-29T05:20:01.679Z,0
2017-03-29T05:20:34.017Z,0
2017-03-29T05:21:06.336Z,0
2017-03-29T05:21:38.650Z,0
2017-03-29T05:22:10.936Z,0
2017-03-29T05:22:43.235Z,0
2017-03-29T05:23:15.495Z,0
2017-03-29T05:23:47.754Z,0
2017-03-29T05:24:20.013Z,0
2017-03-29T05:24:53.477Z,0
2017-03-29T05:25:25.743Z,0
2017-03-29T05:25:57.999Z,0
2017-03-29T05:26:31.453Z,0
2017-03-29T05:27:03.723Z,0
2017-03-29T05:27:35.981Z,0
2017-03-29T05:28:08.959Z,0
2017-03-29T05:28:41.218Z,0
2017-03-29T05:29:13.521Z,0
2017-03-29T05:29:45.766Z,0
2017-03-29T05:30:18.135Z,0
2017-03-29T05:30:50.975Z,0
2017-03-29T05:31:23.246Z,0
2017-03-29T05:31:56.415Z,0
2017-03-29T05:32:28.735Z,0
2017-03-29T05:33:01.035Z,0
2017-03-29T05:34:54.572Z,5
2017-03-29T05:35:26.989Z,5
2017-03-29T05:35:59.318Z,5
2017-03-29T05:36:31.654Z,5
2017-03-29T05:37:03.997Z,5
2017-03-29T05:37:36.315Z,5
2017-03-29T05:38:08.631Z,5
2017-03-29T05:38:40.946Z,5
2017-03-29T05:39:13.263Z,5
2017-03-29T05:39:45.576Z,5
2017-03-29T05:40:17.891Z,5
2017-03-29T05:40:50.223Z,5
2017-03-29T05:41:22.789Z,5
2017-03-29T05:41:55.148Z,5
2017-03-29T05:42:27.404Z,5
2017-03-29T05:42:59.693Z,5
2017-03-29T05:43:31.960Z,5
2017-03-29T05:44:04.880Z,5
2017-03-29T05:44:38.384Z,5
2017-03-29T05:45:10.628Z,5
2017-03-29T05:45:42.880Z,5
2017-03-29T05:46:15.126Z,10
2017-03-29T05:46:47.962Z,10
2017-03-29T05:47:20.229Z,10
2017-03-29T05:47:52.502Z,10
2017-03-29T05:48:24.736Z,10
2017-03-29T05:48:57.480Z,10
2017-03-29T05:49:29.722Z,10
2017-03-29T05:50:02.041Z,10
2017-03-29T05:50:34.335Z,10
2017-03-29T05:51:06.610Z,10
2017-03-29T05:51:38.883Z,10
2017-03-29T05:52:11.141Z,10
2017-03-29T05:52:43.388Z,10
2017-03-29T05:53:16.448Z,10
2017-03-29T05:53:49.274Z,15
2017-03-29T05:54:21.618Z,15
2017-03-29T05:54:53.894Z,15
2017-03-29T05:55:26.138Z,15
2017-03-29T05:55:59.309Z,15
2017-03-29T05:56:31.568Z,15
2017-03-29T05:57:04.381Z,15
2017-03-29T05:57:36.640Z,15
2017-03-29T05:58:09.470Z,15
2017-03-29T05:58:42.083Z,15
2017-03-29T05:59:14.344Z,15
2017-03-29T05:59:46.881Z,15
2017-03-29T06:00:19.326Z,15
2017-03-29T06:00:51.581Z,15
2017-03-29T06:01:23.848Z,15
2017-03-29T06:01:56.153Z,15
2017-03-29T06:02:28.501Z,15
2017-03-29T06:03:00.813Z,15
2017-03-29T06:03:33.127Z,15
2017-03-29T06:04:05.479Z,15
2017-03-29T06:04:37.807Z,15
2017-03-29T06:05:10.133Z,15
2017-03-29T06:05:42.466Z,15
2017-03-29T06:06:14.781Z,15
2017-03-29T06:06:47.089Z,20
2017-03-29T06:07:19.391Z,20
2017-03-29T06:07:51.705Z,20
2017-03-29T06:08:24.018Z,20
2017-03-29T06:08:56.380Z,20
2017-03-29T06:09:29.595Z,20
2017-03-29T06:10:01.959Z,20
2017-03-29T06:10:34.278Z,20
2017-03-29T06:11:06.605Z,20
2017-03-29T06:11:38.928Z,20
2017-03-29T06:12:12.394Z,25
2017-03-29T06:12:44.643Z,25
2017-03-29T06:13:16.921Z,25
2017-03-29T06:13:49.222Z,25
2017-03-29T06:14:21.497Z,25
2017-03-29T06:14:54.466Z,25
2017-03-29T06:15:26.757Z,25
2017-03-29T06:15:59.790Z,25
2017-03-29T06:16:32.052Z,25
2017-03-29T06:17:04.507Z,25
2017-03-29T06:17:37.467Z,25
2017-03-29T06:18:09.896Z,25
2017-03-29T06:18:42.158Z,25
2017-03-29T06:19:14.448Z,25
2017-03-29T06:19:46.725Z,25
2017-03-29T06:20:18.976Z,30
2017-03-29T06:20:51.965Z,30
2017-03-29T06:21:24.839Z,25
2017-03-29T06:21:58.072Z,25
2017-03-29T06:22:30.962Z,25
2017-03-29T06:23:03.217Z,25
2017-03-29T06:23:36.485Z,25
2017-03-29T06:24:08.787Z,25
2017-03-29T06:24:41.128Z,25
2017-03-29T06:25:13.388Z,25
2017-03-29T06:25:46.479Z,25
2017-03-29T06:26:18.783Z,30
2017-03-29T06:26:51.053Z,30
2017-03-29T06:27:23.848Z,30
2017-03-29T06:27:56.146Z,30
2017-03-29T06:28:28.406Z,30
2017-03-29T06:29:02.008Z,30
2017-03-29T06:29:34.280Z,30
2017-03-29T06:30:07.375Z,30
2017-03-29T06:30:40.332Z,30
2017-03-29T06:31:13.403Z,50
2017-03-29T06:31:45.695Z,30
2017-03-29T06:32:17.961Z,30
2017-03-29T06:32:50.903Z,30
2017-03-29T06:33:23.880Z,30
2017-03-29T06:33:56.145Z,30
2017-03-29T06:34:28.405Z,30
2017-03-29T06:35:02.019Z,35
2017-03-29T06:35:35.418Z,35
2017-03-29T06:36:08.345Z,30
2017-03-29T06:36:41.396Z,30
2017-03-29T06:37:13.661Z,25
2017-03-29T06:37:46.848Z,25
2017-03-29T06:38:19.155Z,20
2017-03-29T06:38:51.980Z,20
2017-03-29T06:39:24.282Z,20
2017-03-29T06:39:56.547Z,20
2017-03-29T06:40:28.819Z,20
2017-03-29T06:41:01.799Z,20
2017-03-29T06:41:34.062Z,20
2017-03-29T06:42:06.374Z,15
2017-03-29T06:42:38.799Z,15
2017-03-29T06:43:11.071Z,15
2017-03-29T06:43:43.326Z,15
2017-03-29T06:44:15.588Z,15
2017-03-29T06:44:48.465Z,15
2017-03-29T06:45:20.748Z,15
2017-03-29T06:45:53.010Z,15
2017-03-29T06:46:25.278Z,15
2017-03-29T06:46:57.556Z,20
2017-03-29T06:47:30.580Z,20
2017-03-29T06:48:02.863Z,15
2017-03-29T06:48:35.958Z,15
2017-03-29T06:49:08.230Z,15
2017-03-29T06:49:43.117Z,15
2017-03-29T06:50:15.431Z,15
2017-03-29T06:50:48.350Z,15
2017-03-29T06:51:20.620Z,15
2017-03-29T06:51:52.917Z,15
2017-03-29T06:52:25.239Z,10
2017-03-29T06:52:57.576Z,10
2017-03-29T06:53:29.897Z,10
2017-03-29T06:54:02.231Z,10
2017-03-29T06:54:34.552Z,10
2017-03-29T06:55:06.879Z,10
2017-03-29T06:55:39.224Z,10
2017-03-29T06:56:11.537Z,10
2017-03-29T06:56:43.859Z,15
2017-03-29T06:57:16.172Z,15
2017-03-29T06:57:48.488Z,15
2017-03-29T06:58:20.803Z,15
2017-03-29T06:58:53.111Z,15
2017-03-29T06:59:25.409Z,20
2017-03-29T06:59:57.738Z,20
2017-03-29T07:00:30.073Z,20
2017-03-29T07:01:02.395Z,20
2017-03-29T07:01:34.707Z,20
2017-03-29T07:02:07.012Z,20
2017-03-29T07:02:39.359Z,25
2017-03-29T07:03:11.713Z,25
2017-03-29T07:03:44.113Z,20
2017-03-29T07:04:16.837Z,25
2017-03-29T07:04:49.690Z,25
2017-03-29T07:05:22.529Z,25
2017-03-29T07:05:54.935Z,25
2017-03-29T07:06:27.247Z,25
2017-03-29T07:06:59.580Z,25
2017-03-29T07:07:31.919Z,25
2017-03-29T07:08:04.250Z,25
2017-03-29T07:08:36.567Z,25
2017-03-29T07:09:08.879Z,25
2017-03-29T07:09:41.195Z,30
2017-03-29T07:10:13.506Z,30
2017-03-29T07:10:45.835Z,30
2017-03-29T07:11:18.833Z,25
2017-03-29T07:11:51.155Z,25
2017-03-29T07:12:23.928Z,20
2017-03-29T07:12:56.188Z,15
2017-03-29T07:13:28.436Z,15
2017-03-29T07:14:01.492Z,15
2017-03-29T07:14:34.546Z,15
2017-03-29T07:15:06.828Z,20
2017-03-29T07:15:39.098Z,20
2017-03-29T07:16:11.373Z,20
2017-03-29T07:16:45.095Z,25
2017-03-29T07:17:17.380Z,25
2017-03-29T07:17:50.467Z,25
2017-03-29T07:18:22.741Z,25
2017-03-29T07:18:55.023Z,25
2017-03-29T07:19:29.949Z,25
2017-03-29T07:20:02.982Z,25
2017-03-29T07:20:35.264Z,30
2017-03-29T07:21:08.546Z,30
2017-03-29T07:21:40.842Z,35
2017-03-29T07:22:13.123Z,35
2017-03-29T07:22:45.926Z,40
2017-03-29T07:23:18.189Z,40
2017-03-29T07:23:51.379Z,45
2017-03-29T07:24:24.472Z,45
2017-03-29T07:24:57.374Z,50
2017-03-29T07:25:30.549Z,55
2017-03-29T07:26:03.474Z,50
2017-03-29T07:26:35.712Z,45
2017-03-29T07:27:07.988Z,45
2017-03-29T07:27:40.342Z,40
2017-03-29T07:28:12.625Z,35
2017-03-29T07:28:44.885Z,35
2017-03-29T07:29:17.123Z,35
2017-03-29T07:29:49.362Z,35
2017-03-29T07:30:21.635Z,40
2017-03-29T07:30:53.885Z,40
2017-03-29T07:31:26.160Z,45
2017-03-29T07:31:58.479Z,50
2017-03-29T07:32:30.813Z,50
2017-03-29T07:33:03.135Z,45
2017-03-29T07:33:35.455Z,45
2017-03-29T07:34:07.778Z,45
2017-03-29T07:34:40.107Z,45
2017-03-29T07:35:12.430Z,40
2017-03-29T07:35:44.771Z,40
2017-03-29T07:36:17.116Z,40
2017-03-29T07:36:49.558Z,40
2017-03-29T07:37:21.885Z,40
2017-03-29T07:37:54.202Z,40
2017-03-29T07:38:26.525Z,40
2017-03-29T07:38:58.840Z,40
2017-03-29T07:39:31.186Z,40
2017-03-29T07:40:03.509Z,40
2017-03-29T07:40:35.855Z,45
2017-03-29T07:41:08.167Z,45
2017-03-29T07:41:40.480Z,50
2017-03-29T07:42:12.799Z,50
2017-03-29T07:42:45.108Z,55
2017-03-29T07:43:17.410Z,55
2017-03-29T07:43:49.814Z,55
2017-03-29T07:44:22.122Z,50
2017-03-29T07:44:55.391Z,50
2017-03-29T07:45:27.840Z,55
2017-03-29T07:46:00.225Z,55
2017-03-29T07:46:32.569Z,60
2017-03-29T07:47:04.895Z,65
2017-03-29T07:47:37.218Z,70
2017-03-29T07:48:09.554Z,80
2017-03-29T07:48:41.867Z,85
2017-03-29T07:49:14.188Z,90
2017-03-29T07:49:46.739Z,90
2017-03-29T07:50:19.072Z,80
2017-03-29T07:50:51.613Z,70
2017-03-29T07:51:23.932Z,60
2017-03-29T07:51:56.200Z,50
2017-03-29T07:52:30.423Z,40
2017-03-29T07:53:03.934Z,35
2017-03-29T07:53:36.999Z,30
2017-03-29T07:54:09.272Z,30
2017-03-29T07:54:41.528Z,25
2017-03-29T07:55:14.376Z,25
2017-03-29T07:55:46.650Z,25
2017-03-29T07:56:18.939Z,20
2017-03-29T07:56:52.324Z,20
2017-03-29T07:57:24.646Z,20
2017-03-29T07:57:56.895Z,25
2017-03-29T07:58:29.220Z,25
2017-03-29T07:59:02.436Z,25
2017-03-29T07:59:34.733Z,25
2017-03-29T08:00:07.006Z,30
2017-03-29T08:00:39.277Z,30
2017-03-29T08:01:11.552Z,30
2017-03-29T08:01:43.856Z,35